.
WxDataArchive / Data Records for 2007-02-20
2007-02-19 February 2007 2007-02-21

Data Records for Tuesday, 20 February 2007

Time	Temp	Chill	HIndex	Humid	Dewpt	 Wind 	HiWind	WindDir	Rain 	Barom 
-----	----	-----	------	-----	-----	------	------	-------	-----	----- 
00:00	41.1	41.1	41.1	59	27.9	3	9	248	0.00	29.653 
00:05	40.9	40.9	40.9	59	27.7	3	7	248	0.00	29.648 
00:10	40.9	40.9	40.9	59	27.7	3	9	248	0.00	29.649 
00:15	40.9	40.9	40.9	59	27.7	3	7	248	0.00	29.647 
00:20	40.8	40.8	40.8	59	27.6	3	6	248	0.00	29.644 
00:25	40.9	38.4	40.9	59	27.7	4	8	248	0.00	29.646 
00:30	40.9	40.9	40.9	59	27.7	3	7	248	0.00	29.642 
00:35	40.8	40.8	40.8	59	27.6	3	10	248	0.00	29.640 
00:40	40.6	40.6	40.6	60	27.8	3	7	248	0.00	29.639 
00:45	40.8	38.2	40.8	59	27.6	4	12	248	0.00	29.639 
00:50	40.6	40.6	40.6	60	27.8	3	7	248	0.00	29.638 
00:55	40.5	40.5	40.5	60	27.7	3	6	248	0.00	29.639 
01:00	40.5	40.5	40.5	60	27.7	3	6	248	0.00	29.640 
01:05	40.5	40.5	40.5	60	27.7	3	7	248	0.00	29.637 
01:10	40.3	40.3	40.3	61	27.9	3	6	248	0.00	29.636 
01:15	40.2	40.2	40.2	61	27.8	3	7	248	0.00	29.636 
01:20	40.1	40.1	40.1	61	27.7	3	8	248	0.00	29.635 
01:25	39.9	39.9	39.9	62	28.0	3	9	248	0.00	29.636 
01:30	39.8	39.8	39.8	62	27.9	3	7	248	0.00	29.635 
01:35	39.6	39.6	39.6	62	27.7	3	9	248	0.00	29.635 
01:40	39.5	39.5	39.5	62	27.6	2	6	248	0.00	29.636 
01:45	39.3	39.3	39.3	63	27.8	3	5	248	0.00	29.637 
01:50	39.1	39.1	39.1	63	27.6	3	7	248	0.00	29.637 
01:55	39.1	36.3	39.1	63	27.6	4	9	248	0.00	29.637 
02:00	38.9	38.9	38.9	64	27.8	3	6	248	0.00	29.638 
02:05	38.9	38.9	38.9	64	27.8	2	5	248	0.00	29.636 
02:10	38.8	38.8	38.8	64	27.7	2	5	248	0.00	29.637 
02:15	38.6	38.6	38.6	65	27.9	2	6	248	0.00	29.636 
02:20	38.5	38.5	38.5	65	27.8	2	4	248	0.00	29.635 
02:25	38.3	38.3	38.3	65	27.6	2	6	248	0.00	29.637 
02:30	38.3	38.3	38.3	65	27.6	2	5	248	0.00	29.637 
02:35	38.2	38.2	38.2	65	27.5	2	3	248	0.00	29.637 
02:40	38.2	38.2	38.2	66	27.9	2	7	248	0.00	29.636 
02:45	38.2	38.2	38.2	65	27.5	3	6	248	0.00	29.636 
02:50	38.2	38.2	38.2	66	27.9	2	5	248	0.00	29.636 
02:55	38.0	38.0	38.0	66	27.7	2	5	248	0.00	29.636 
03:00	37.9	37.9	37.9	66	27.6	2	5	270	0.00	29.636 
03:05	37.9	37.9	37.9	66	27.6	2	4	248	0.00	29.634 
03:10	37.8	37.8	37.8	67	27.8	1	4	248	0.00	29.635 
03:15	37.6	37.6	37.6	67	27.7	1	4	248	0.00	29.634 
03:20	37.5	37.5	37.5	67	27.6	1	3	248	0.00	29.633 
03:25	37.3	37.3	37.3	68	27.7	1	4	248	0.00	29.633 
03:30	37.3	37.3	37.3	68	27.7	1	4	248	0.00	29.634 
03:35	37.2	37.2	37.2	68	27.6	1	4	225	0.00	29.634 
03:40	37.0	37.0	37.0	69	27.8	1	3	248	0.00	29.635 
03:45	36.9	36.9	36.9	69	27.7	1	5	225	0.00	29.634 
03:50	36.8	36.8	36.8	69	27.6	1	2	225	0.00	29.635 
03:55	36.8	36.8	36.8	69	27.6	1	4	248	0.00	29.635 
04:00	36.6	36.6	36.6	69	27.4	1	4	248	0.00	29.635 
04:05	36.6	36.6	36.6	69	27.4	1	3	248	0.00	29.635 
04:10	36.6	36.6	36.6	70	27.8	1	3	248	0.00	29.634 
04:15	36.5	36.5	36.5	70	27.7	1	4	248	0.00	29.631 
04:20	36.5	36.5	36.5	70	27.7	1	3	248	0.00	29.633 
04:25	36.5	36.5	36.5	70	27.7	1	3	248	0.00	29.632 
04:30	36.3	36.3	36.3	70	27.5	1	3	248	0.00	29.635 
04:35	36.2	36.2	36.2	71	27.7	1	2	248	0.00	29.634 
04:40	36.2	36.2	36.2	71	27.7	1	3	248	0.00	29.631 
04:45	36.0	36.0	36.0	71	27.5	1	3	248	0.00	29.634 
04:50	36.0	36.0	36.0	71	27.5	1	3	248	0.00	29.636 
04:55	35.9	35.9	35.9	71	27.4	1	3	248	0.00	29.637 
05:00	35.9	35.9	35.9	72	27.8	1	2	248	0.00	29.637 
05:05	35.8	35.8	35.8	72	27.7	0	2	248	0.00	29.637 
05:10	35.8	35.8	35.8	72	27.7	1	2	248	0.00	29.638 
05:15	35.6	35.6	35.6	73	27.8	0	2	248	0.00	29.638 
05:20	35.5	35.5	35.5	73	27.7	0	2	248	0.00	29.637 
05:25	35.3	35.3	35.3	73	27.5	0	3	248	0.00	29.637 
05:30	35.3	35.3	35.3	73	27.5	0	1	248	0.00	29.641 
05:35	35.2	35.2	35.2	73	27.4	0	3	248	0.00	29.644 
05:40	35.2	35.2	35.2	74	27.8	0	2	248	0.00	29.644 
05:45	35.2	35.2	35.2	74	27.8	0	1	248	0.00	29.646 
05:50	35.0	35.0	35.0	74	27.6	0	1	248	0.00	29.643 
05:55	34.9	34.9	34.9	74	27.5	0	2	248	0.00	29.646 
06:00	34.7	34.7	34.7	76	27.9	1	2	248	0.00	29.647 
06:05	34.9	34.9	34.9	75	27.8	0	2	248	0.00	29.646 
06:10	34.9	34.9	34.9	75	27.8	0	2	248	0.00	29.652 
06:15	34.7	34.7	34.7	76	27.9	0	1	248	0.00	29.652 
06:20	34.7	34.7	34.7	76	27.9	0	1	248	0.00	29.652 
06:25	34.4	34.4	34.4	76	27.6	0	0	---	0.00	29.652 
06:30	34.3	34.3	34.3	77	27.9	0	1	248	0.00	29.648 
06:35	34.1	34.1	34.1	77	27.7	0	1	248	0.00	29.648 
06:40	34.0	34.0	34.0	77	27.6	0	1	248	0.00	29.647 
06:45	33.8	33.8	33.8	78	27.7	0	0	---	0.00	29.648 
06:50	33.7	33.7	33.7	78	27.6	0	1	248	0.00	29.648 
06:55	33.8	33.8	33.8	79	28.0	0	1	248	0.00	29.654 
07:00	34.0	34.0	34.0	79	28.2	0	2	248	0.00	29.653 
07:05	34.3	34.3	34.3	79	28.5	0	2	248	0.00	29.655 
07:10	34.6	34.6	34.6	79	28.8	0	2	248	0.00	29.655 
07:15	35.0	35.0	35.0	79	29.2	1	2	248	0.00	29.655 
07:20	35.5	35.5	35.5	78	29.3	1	3	248	0.00	29.655 
07:25	35.9	35.9	35.9	77	29.4	1	3	248	0.00	29.655 
07:30	36.2	36.2	36.2	77	29.7	1	3	248	0.00	29.657 
07:35	36.3	36.3	36.3	77	29.8	0	2	248	0.00	29.659 
07:40	36.5	36.5	36.5	77	30.0	0	2	248	0.00	29.657 
07:45	36.6	36.6	36.6	77	30.1	0	2	248	0.00	29.655 
07:50	36.8	36.8	36.8	77	30.3	1	3	225	0.00	29.658 
07:55	36.9	36.9	36.9	76	30.1	1	3	248	0.00	29.657 
08:00	37.0	37.0	37.0	76	30.2	0	2	248	0.00	29.655 
08:05	37.2	37.2	37.2	76	30.3	1	3	248	0.00	29.658 
08:10	37.3	37.3	37.3	75	30.1	0	2	248	0.00	29.660 
08:15	37.5	37.5	37.5	75	30.3	0	2	248	0.00	29.662 
08:20	37.6	37.6	37.6	75	30.4	1	3	248	0.00	29.660 
08:25	37.8	37.8	37.8	75	30.6	0	2	248	0.00	29.659 
08:30	38.0	38.0	38.0	75	30.8	0	2	248	0.00	29.664 
08:35	38.2	38.2	38.2	74	30.7	1	3	248	0.00	29.665 
08:40	38.5	38.5	38.5	74	30.9	0	2	248	0.00	29.665 
08:45	38.6	38.6	38.6	73	30.7	1	4	248	0.00	29.666 
08:50	38.9	38.9	38.9	73	31.0	1	3	248	0.00	29.666 
08:55	39.1	39.1	39.1	73	31.2	1	3	248	0.00	29.667 
09:00	39.2	39.2	39.2	73	31.3	1	4	248	0.00	29.668 
09:05	39.3	39.3	39.3	73	31.4	1	3	248	0.00	29.668 
09:10	39.5	39.5	39.5	72	31.2	1	5	248	0.00	29.668 
09:15	39.6	39.6	39.6	72	31.3	0	2	248	0.00	29.668 
09:20	39.8	39.8	39.8	72	31.5	1	6	248	0.00	29.669 
09:25	39.8	39.8	39.8	72	31.5	1	4	248	0.00	29.669 
09:30	39.9	39.9	39.9	72	31.6	1	5	248	0.00	29.672 
09:35	40.2	40.2	40.2	71	31.6	2	4	248	0.00	29.670 
09:40	40.5	40.5	40.5	70	31.5	1	4	248	0.00	29.669 
09:45	40.6	40.6	40.6	70	31.6	1	3	248	0.00	29.667 
09:50	40.8	40.8	40.8	70	31.8	1	4	248	0.00	29.667 
09:55	40.6	40.6	40.6	70	31.6	3	6	248	0.00	29.673 
10:00	40.8	40.8	40.8	70	31.8	2	6	248	0.00	29.669 
10:05	40.8	40.8	40.8	70	31.8	3	7	248	0.00	29.667 
10:10	40.8	40.8	40.8	70	31.8	2	5	248	0.00	29.670 
10:15	40.9	40.9	40.9	70	31.9	2	5	248	0.00	29.671 
10:20	40.9	40.9	40.9	70	31.9	2	7	248	0.00	29.671 
10:25	41.2	41.2	41.2	70	32.2	2	5	248	0.00	29.668 
10:30	41.2	41.2	41.2	69	31.8	2	5	248	0.00	29.668 
10:35	41.3	41.3	41.3	69	31.9	2	6	248	0.00	29.669 
10:40	41.2	41.2	41.2	70	32.2	3	7	270	0.00	29.671 
10:45	41.2	41.2	41.2	70	32.2	2	6	248	0.00	29.671 
10:50	41.5	41.5	41.5	69	32.1	2	4	248	0.00	29.670 
10:55	41.5	41.5	41.5	69	32.1	1	5	248	0.00	29.669 
11:00	41.6	41.6	41.6	69	32.2	1	3	248	0.00	29.667 
11:05	41.6	41.6	41.6	69	32.2	1	2	248	0.00	29.667 
11:10	41.6	41.6	41.6	69	32.2	1	5	248	0.00	29.671 
11:15	41.8	41.8	41.8	69	32.4	1	5	248	0.00	29.668 
11:20	41.9	41.9	41.9	69	32.5	0	2	248	0.00	29.668 
11:25	42.2	42.2	42.2	68	32.4	1	2	292	0.00	29.669 
11:30	42.3	42.3	42.3	68	32.5	1	4	248	0.00	29.672 
11:35	42.2	42.2	42.2	68	32.4	2	5	248	0.00	29.673 
11:40	41.9	41.9	41.9	69	32.5	1	2	270	0.00	29.671 
11:45	42.1	42.1	42.1	69	32.7	2	5	270	0.00	29.669 
11:50	42.1	42.1	42.1	69	32.7	1	2	248	0.00	29.669 
11:55	42.2	42.2	42.2	69	32.8	1	3	248	0.00	29.666 
12:00	42.3	42.3	42.3	68	32.5	2	4	248	0.00	29.670 
12:05	42.5	42.5	42.5	68	32.7	1	3	248	0.00	29.674 
12:10	42.5	42.5	42.5	68	32.7	2	3	270	0.00	29.675 
12:15	42.3	42.3	42.3	68	32.5	2	5	270	0.00	29.678 
12:20	42.2	42.2	42.2	69	32.8	1	4	270	0.00	29.675 
12:25	41.8	41.8	41.8	69	32.4	2	5	315	0.00	29.673 
12:30	41.6	41.6	41.6	69	32.2	2	3	270	0.00	29.667 
12:35	41.5	41.5	41.5	69	32.1	2	4	270	0.00	29.665 
12:40	41.6	41.6	41.6	69	32.2	1	2	292	0.00	29.662 
12:45	41.8	41.8	41.8	69	32.4	2	3	248	0.00	29.658 
12:50	42.1	42.1	42.1	68	32.3	1	3	270	0.00	29.653 
12:55	42.2	42.2	42.2	68	32.4	1	3	270	0.00	29.649 
13:00	42.5	42.5	42.5	67	32.3	1	4	248	0.00	29.647 
13:05	42.9	42.9	42.9	66	32.3	1	3	248	0.00	29.647 
13:10	43.8	43.8	43.8	65	32.8	1	3	248	0.00	29.647 
13:15	44.2	44.2	44.2	63	32.4	1	4	338	0.00	29.645 
13:20	44.2	44.2	44.2	62	32.0	2	5	270	0.00	29.642 
13:25	43.6	43.6	43.6	63	31.8	1	6	270	0.00	29.642 
13:30	43.2	43.2	43.2	64	31.9	1	4	292	0.00	29.643 
13:35	43.2	43.2	43.2	65	32.2	1	3	292	0.00	29.647 
13:40	43.2	43.2	43.2	65	32.2	1	4	270	0.00	29.648 
13:45	43.3	43.3	43.3	65	32.3	1	2	270	0.00	29.652 
13:50	43.6	43.6	43.6	64	32.2	1	2	270	0.00	29.653 
13:55	43.3	43.3	43.3	64	32.0	1	3	225	0.00	29.655 
14:00	42.8	42.8	42.8	65	31.9	1	3	270	0.00	29.664 
14:05	42.6	42.6	42.6	65	31.7	1	4	315	0.00	29.665 
14:10	42.3	42.3	42.3	66	31.8	1	3	315	0.00	29.668 
14:15	42.3	42.3	42.3	66	31.8	1	4	270	0.00	29.666 
14:20	42.3	42.3	42.3	66	31.8	1	6	292	0.00	29.667 
14:25	42.3	42.3	42.3	66	31.8	1	3	315	0.00	29.666 
14:30	42.5	42.5	42.5	67	32.3	1	5	315	0.00	29.669 
14:35	42.3	42.3	42.3	68	32.5	1	4	270	0.00	29.668 
14:40	41.9	41.9	41.9	69	32.5	1	7	338	0.00	29.667 
14:45	41.5	41.5	41.5	70	32.5	1	4	315	0.00	29.667 
14:50	41.1	41.1	41.1	72	32.8	1	5	0	0.00	29.669 
14:55	40.6	40.6	40.6	73	32.6	1	5	338	0.00	29.671 
15:00	40.2	40.2	40.2	76	33.3	1	5	292	0.00	29.673 
15:05	40.1	40.1	40.1	77	33.5	1	2	292	0.00	29.674 
15:10	39.8	39.8	39.8	78	33.5	1	4	292	0.00	29.678 
15:15	39.3	39.3	39.3	80	33.7	1	4	315	0.01	29.680 
15:20	38.9	38.9	38.9	82	33.9	1	2	315	0.00	29.679 
15:25	38.8	38.8	38.8	84	34.4	0	2	315	0.00	29.676 
15:30	38.6	38.6	38.6	84	34.2	1	4	315	0.00	29.673 
15:35	38.5	38.5	38.5	84	34.1	1	5	292	0.00	29.673 
15:40	38.3	38.3	38.3	85	34.2	1	3	338	0.00	29.671 
15:45	38.2	38.2	38.2	85	34.1	1	4	338	0.01	29.673 
15:50	37.9	37.9	37.9	86	34.1	1	6	338	0.00	29.674 
15:55	37.9	37.9	37.9	87	34.4	0	2	292	0.00	29.673 
16:00	38.0	38.0	38.0	87	34.5	0	2	292	0.00	29.673 
16:05	37.9	37.9	37.9	87	34.4	0	2	292	0.00	29.673 
16:10	38.0	38.0	38.0	87	34.5	0	2	292	0.00	29.673 
16:15	38.2	38.2	38.2	87	34.7	0	4	270	0.00	29.673 
16:20	38.2	38.2	38.2	87	34.7	0	2	270	0.00	29.673 
16:25	38.3	38.3	38.3	86	34.5	0	1	292	0.00	29.671 
16:30	38.3	38.3	38.3	86	34.5	0	2	292	0.00	29.670 
16:35	38.5	38.5	38.5	86	34.7	0	2	338	0.00	29.669 
16:40	38.5	38.5	38.5	86	34.7	0	1	338	0.00	29.669 
16:45	38.5	38.5	38.5	86	34.7	0	2	338	0.00	29.668 
16:50	38.6	38.6	38.6	86	34.8	0	1	338	0.00	29.667 
16:55	38.8	38.8	38.8	86	35.0	0	0	---	0.00	29.663 
17:00	38.9	38.9	38.9	86	35.1	0	1	338	0.00	29.663 
17:05	39.1	39.1	39.1	85	35.0	0	0	---	0.00	29.663 
17:10	39.2	39.2	39.2	85	35.1	0	0	---	0.00	29.666 
17:15	39.2	39.2	39.2	84	34.8	0	0	---	0.00	29.668 
17:20	39.2	39.2	39.2	84	34.8	0	0	---	0.00	29.671 
17:25	39.1	39.1	39.1	84	34.7	0	1	338	0.00	29.672 
17:30	38.9	38.9	38.9	84	34.5	0	0	---	0.00	29.674 
17:35	38.8	38.8	38.8	84	34.4	0	2	338	0.00	29.674 
17:40	38.8	38.8	38.8	84	34.4	0	0	---	0.00	29.675 
17:45	38.6	38.6	38.6	85	34.5	0	1	338	0.00	29.679 
17:50	38.6	38.6	38.6	85	34.5	0	0	---	0.00	29.682 
17:55	38.5	38.5	38.5	85	34.4	0	0	---	0.00	29.682 
18:00	38.3	38.3	38.3	85	34.2	0	0	---	0.00	29.683 
18:05	38.0	38.0	38.0	85	33.9	0	0	---	0.00	29.684 
18:10	37.9	37.9	37.9	85	33.8	0	0	---	0.00	29.687 
18:15	37.6	37.6	37.6	86	33.8	0	0	---	0.00	29.689 
18:20	37.3	37.3	37.3	86	33.5	0	1	338	0.00	29.691 
18:25	37.2	37.2	37.2	87	33.7	0	1	338	0.00	29.696 
18:30	37.0	37.0	37.0	87	33.5	0	0	---	0.00	29.702 
18:35	36.8	36.8	36.8	88	33.6	0	1	338	0.00	29.706 
18:40	36.5	36.5	36.5	88	33.3	0	0	---	0.00	29.708 
18:45	36.3	36.3	36.3	88	33.1	0	0	---	0.00	29.711 
18:50	35.9	35.9	35.9	88	32.7	0	0	---	0.00	29.713 
18:55	35.6	35.6	35.6	88	32.4	0	0	---	0.00	29.716 
19:00	35.2	35.2	35.2	88	32.0	0	0	---	0.00	29.723 
19:05	34.9	34.9	34.9	89	32.0	0	0	---	0.00	29.721 
19:10	34.6	34.6	34.6	89	31.7	0	0	---	0.00	29.721 
19:15	34.3	34.3	34.3	89	31.4	0	0	---	0.00	29.726 
19:20	34.0	34.0	34.0	89	31.1	0	0	---	0.00	29.726 
19:25	33.5	33.5	33.5	89	30.6	0	0	---	0.00	29.730 
19:30	33.2	33.2	33.2	90	30.6	0	0	---	0.00	29.733 
19:35	32.9	32.9	32.9	90	30.3	0	0	---	0.00	29.735 
19:40	32.7	32.7	32.7	90	30.1	0	0	---	0.00	29.736 
19:45	32.5	32.5	32.5	90	29.9	0	0	---	0.00	29.738 
19:50	32.2	32.2	32.2	90	29.6	0	0	---	0.00	29.741 
19:55	32.1	32.1	32.1	91	29.8	0	0	---	0.00	29.743 
20:00	31.9	31.9	31.9	91	29.6	0	0	---	0.00	29.744 
20:05	31.6	31.6	31.6	91	29.3	0	0	---	0.00	29.744 
20:10	31.3	31.3	31.3	91	29.0	0	0	---	0.00	29.748 
20:15	31.0	31.0	31.0	91	28.7	0	0	---	0.00	29.750 
20:20	30.9	30.9	30.9	91	28.6	0	0	---	0.00	29.753 
20:25	30.6	30.6	30.6	91	28.3	0	0	---	0.00	29.755 
20:30	30.4	30.4	30.4	91	28.1	0	0	---	0.00	29.757 
20:35	30.3	30.3	30.3	91	28.0	0	0	---	0.00	29.758 
20:40	30.3	30.3	30.3	92	28.3	0	0	---	0.00	29.760 
20:45	30.3	30.3	30.3	92	28.3	0	0	---	0.00	29.759 
20:50	30.3	30.3	30.3	92	28.3	0	0	---	0.00	29.758 
20:55	30.1	30.1	30.1	92	28.1	0	0	---	0.00	29.761 
21:00	30.3	30.3	30.3	92	28.3	0	0	---	0.00	29.762 
21:05	30.1	30.1	30.1	93	28.3	0	0	---	0.00	29.760 
21:10	30.0	30.0	30.0	92	28.0	0	0	---	0.00	29.763 
21:15	29.7	29.7	29.7	92	27.7	0	0	---	0.00	29.763 
21:20	29.5	29.5	29.5	93	27.7	0	0	---	0.00	29.763 
21:25	29.7	29.7	29.7	93	27.9	0	0	---	0.00	29.768 
21:30	29.8	29.8	29.8	93	28.0	0	0	---	0.00	29.769 
21:35	29.7	29.7	29.7	93	27.9	0	0	---	0.00	29.769 
21:40	29.5	29.5	29.5	93	27.7	0	0	---	0.00	29.770 
21:45	29.4	29.4	29.4	93	27.6	0	0	---	0.00	29.771 
21:50	29.3	29.3	29.3	93	27.5	0	0	---	0.00	29.771 
21:55	29.5	29.5	29.5	94	28.0	0	1	338	0.00	29.772 
22:00	30.1	30.1	30.1	94	28.6	0	0	---	0.00	29.771 
22:05	30.1	30.1	30.1	94	28.6	0	0	---	0.00	29.770 
22:10	30.0	30.0	30.0	94	28.5	0	0	---	0.00	29.769 
22:15	30.3	30.3	30.3	95	29.0	0	1	338	0.00	29.770 
22:20	30.9	30.9	30.9	95	29.6	0	0	---	0.00	29.771 
22:25	31.3	31.3	31.3	95	30.0	0	1	338	0.00	29.775 
22:30	31.5	31.5	31.5	95	30.2	0	0	---	0.00	29.774 
22:35	31.6	31.6	31.6	95	30.3	0	0	---	0.00	29.777 
22:40	31.6	31.6	31.6	95	30.3	0	0	---	0.00	29.775 
22:45	31.5	31.5	31.5	95	30.2	0	0	---	0.00	29.771 
22:50	31.2	31.2	31.2	95	29.9	0	0	---	0.00	29.775 
22:55	31.0	31.0	31.0	95	29.7	0	0	---	0.00	29.774 
23:00	30.7	30.7	30.7	95	29.4	0	0	---	0.00	29.777 
23:05	30.4	30.4	30.4	95	29.1	0	0	---	0.00	29.779 
23:10	30.0	30.0	30.0	95	28.7	0	0	---	0.00	29.780 
23:15	29.7	29.7	29.7	95	28.4	0	0	---	0.00	29.782 
23:20	29.4	29.4	29.4	95	28.1	0	0	---	0.00	29.784 
23:25	29.1	29.1	29.1	95	27.9	0	0	---	0.00	29.786 
23:30	28.8	28.8	28.8	95	27.6	0	0	---	0.00	29.787 
23:35	28.5	28.5	28.5	95	27.3	0	0	---	0.00	29.787 
23:40	28.4	28.4	28.4	95	27.2	0	0	---	0.00	29.785 
23:45	28.1	28.1	28.1	95	26.9	0	0	---	0.00	29.786 
23:50	27.8	27.8	27.8	94	26.3	0	0	---	0.00	29.787 
23:55	27.5	27.5	27.5	94	26.0	0	0	---	0.00	29.787 

CoCoRaHS
IN-AL-39
A2 Web Hosting
Creative Commons License
GoDaddy
Look for:

loaded 2017-12-13 09:46:31 • last modified 2010-11-18 10:43:29
Privacy PolicyDisclaimer
• wx.awcolley.com is powered by PmWiki v.2002016 •
• all content (unless otherwise noted) © 2017 A W Colley